Time;durP1;ratioP1;P1;durP2;ratioP2;P2;SDS_P1;SDS_P2;PMS_P1;PMS_P2;Temp;Humidity;BMP_temperature;BMP_pressure;BME280_temperature;BME280_humidity;BME280_pressure;Samples;Min_cycle;Max_cycle;Signal;HPM_P1;HPM_P2
2022/09/12 00:03:20;;;;;;;12.63;6.53;;;;;;;13.01;92.06;100532.95;3552034;81;99148;-92
2022/09/12 00:08:21;;;;;;;11.03;5.80;;;;;;;12.98;92.03;100530.38;3532896;81;99107;-91
2022/09/12 00:13:22;;;;;;;11.17;5.27;;;;;;;12.95;91.89;100529.76;3565477;81;122526;-91
2022/09/12 00:18:23;;;;;;;11.30;5.97;;;;;;;12.90;91.97;100527.38;3550715;81;99332;-91
2022/09/12 00:23:24;;;;;;;11.57;5.80;;;;;;;12.86;91.94;100522.41;3557540;81;99166;-91
2022/09/12 00:28:25;;;;;;;11.73;5.37;;;;;;;12.81;91.94;100522.79;3561968;81;99087;-91
2022/09/12 00:33:26;;;;;;;12.05;6.05;;;;;;;12.77;91.88;100517.06;3558062;81;99218;-92
2022/09/12 00:38:28;;;;;;;8.87;4.87;;;;;;;12.69;91.90;100523.14;3548038;81;99164;-92
2022/09/12 00:43:39;;;;;;;9.60;4.60;;;;;;;12.66;91.77;100521.75;3553085;81;101537;-86
2022/09/12 00:48:49;;;;;;;9.93;5.67;;;;;;;12.61;91.87;100527.07;3572118;81;99147;-92
2022/09/12 00:53:53;;;;;;;9.58;5.05;;;;;;;12.55;91.91;100530.58;3558437;81;98998;-91
2022/09/12 00:59:02;;;;;;;9.98;4.78;;;;;;;12.48;91.77;100522.27;3563782;81;99177;-91
2022/09/12 01:04:03;;;;;;;8.10;4.33;;;;;;;12.44;91.93;100520.85;3547083;81;99086;-91
2022/09/12 01:09:04;;;;;;;9.00;4.30;;;;;;;12.39;92.05;100521.25;3562284;81;99027;-91
2022/09/12 01:14:07;;;;;;;10.63;4.90;;;;;;;12.37;92.13;100520.05;3560153;81;98875;-92
2022/09/12 01:19:42;;;;;;;11.08;4.72;;;;;;;12.34;92.28;100520.81;3550452;81;99163;-92
2022/09/12 01:24:55;;;;;;;8.78;4.47;;;;;;;12.31;92.36;100521.60;3554020;81;99221;-92
2022/09/12 01:30:04;;;;;;;8.25;4.72;;;;;;;12.27;92.48;100523.54;3563935;81;98931;-92
2022/09/12 01:35:21;;;;;;;8.23;4.55;;;;;;;12.24;92.34;100522.91;3560248;81;98959;-92
2022/09/12 01:40:36;;;;;;;8.70;4.95;;;;;;;12.18;92.51;100532.74;3567637;81;98988;-92
2022/09/12 01:45:48;;;;;;;9.53;4.85;;;;;;;12.15;92.60;100528.78;3559708;81;98800;-92
2022/09/12 01:50:59;;;;;;;11.18;4.50;;;;;;;12.11;92.56;100529.94;3561391;81;98857;-92
2022/09/12 01:56:08;;;;;;;12.18;5.20;;;;;;;12.09;92.67;100528.14;3535626;81;99269;-92
2022/09/12 02:01:15;;;;;;;9.70;4.70;;;;;;;12.05;92.71;100530.11;3554484;81;99145;-91
2022/09/12 02:06:39;;;;;;;9.25;4.62;;;;;;;12.00;92.64;100529.08;3553035;81;99048;-92
2022/09/12 02:11:43;;;;;;;9.20;4.95;;;;;;;11.96;92.64;100528.26;3547401;81;99037;-92
2022/09/12 02:17:02;;;;;;;9.87;4.80;;;;;;;11.92;92.67;100536.52;3534294;81;99079;-92
2022/09/12 02:22:05;;;;;;;8.80;5.13;;;;;;;11.87;92.71;100537.44;3564914;81;99123;-92
2022/09/12 02:27:14;;;;;;;8.28;4.33;;;;;;;11.82;92.72;100538.59;3542216;81;98841;-92
2022/09/12 02:32:26;;;;;;;9.60;5.07;;;;;;;11.79;92.68;100526.97;3563581;81;98993;-92
2022/09/12 02:37:54;;;;;;;8.08;4.35;;;;;;;11.75;92.67;100527.52;3543527;81;99083;-92
2022/09/12 02:42:56;;;;;;;12.63;5.50;;;;;;;11.70;92.70;100541.66;3478291;81;99092;-93
2022/09/12 02:48:11;;;;;;;9.25;4.85;;;;;;;11.65;92.59;100537.88;3547451;81;99350;-93
2022/09/12 02:53:13;;;;;;;8.53;4.62;;;;;;;11.60;92.48;100535.47;3534825;81;98980;-93
2022/09/12 02:58:22;;;;;;;11.03;4.70;;;;;;;11.55;92.67;100533.03;3564301;81;99354;-92
2022/09/12 03:03:55;;;;;;;14.13;4.87;;;;;;;11.53;92.58;100539.52;3534335;81;99261;-93
2022/09/12 03:09:10;;;;;;;9.48;4.95;;;;;;;11.52;92.68;100542.64;3551535;81;99070;-92
2022/09/12 03:14:42;;;;;;;9.80;5.85;;;;;;;11.50;92.89;100547.76;3551923;81;98953;-92
2022/09/12 03:20:03;;;;;;;9.43;5.30;;;;;;;11.49;92.98;100536.50;3541429;82;107345;-91
2022/09/12 03:25:25;;;;;;;10.32;4.75;;;;;;;11.49;93.14;100545.58;3535239;82;99107;-92
2022/09/12 03:30:26;;;;;;;12.37;4.85;;;;;;;11.50;93.08;100542.24;3505923;82;99169;-90
2022/09/12 03:35:27;;;;;;;13.90;5.05;;;;;;;11.52;93.07;100536.56;3507300;82;99183;-92
2022/09/12 03:40:28;;;;;;;9.70;5.47;;;;;;;11.54;93.39;100538.91;3493013;82;108919;-87
2022/09/12 03:45:29;;;;;;;13.83;5.47;;;;;;;11.56;93.61;100542.09;3511868;81;99166;-87
2022/09/12 03:50:30;;;;;;;10.10;5.30;;;;;;;11.60;93.61;100550.62;3506414;82;99242;-92
2022/09/12 03:55:31;;;;;;;10.95;6.35;;;;;;;11.62;93.76;100548.87;3532609;82;99358;-92
2022/09/12 04:00:32;;;;;;;9.30;4.93;;;;;;;11.67;93.83;100545.77;3528724;81;99164;-91
2022/09/12 04:05:35;;;;;;;11.63;6.03;;;;;;;11.71;93.91;100544.62;3517228;82;109934;-92
2022/09/12 04:10:36;;;;;;;10.40;6.17;;;;;;;11.79;94.19;100543.52;3527061;82;102583;-92
2022/09/12 04:15:37;;;;;;;12.77;6.13;;;;;;;11.86;94.15;100545.52;3538825;81;100051;-91
2022/09/12 04:20:38;;;;;;;10.77;6.00;;;;;;;11.93;94.25;100546.36;3551905;81;99366;-92
2022/09/12 04:25:39;;;;;;;10.43;5.97;;;;;;;12.00;94.19;100551.92;3571674;81;99184;-92
2022/09/12 04:30:40;;;;;;;14.53;6.60;;;;;;;12.05;94.31;100543.29;3559487;81;99135;-92
2022/09/12 04:35:41;;;;;;;11.33;6.03;;;;;;;12.12;94.29;100548.08;3534234;80;101202;-92
2022/09/12 04:40:42;;;;;;;13.00;5.80;;;;;;;12.14;94.58;100547.09;3551007;81;99485;-92
2022/09/12 04:45:44;;;;;;;12.13;6.10;;;;;;;12.18;94.91;100550.67;3561703;81;99131;-92
2022/09/12 04:50:44;;;;;;;12.07;5.80;;;;;;;12.25;94.85;100557.61;3565418;81;99088;-92
2022/09/12 04:55:45;;;;;;;13.10;6.00;;;;;;;12.33;94.82;100550.37;3573389;80;99421;-92
2022/09/12 05:00:46;;;;;;;12.50;7.03;;;;;;;12.38;94.78;100549.23;3555699;80;99258;-91
2022/09/12 05:05:47;;;;;;;12.43;7.60;;;;;;;12.41;95.67;100553.96;3586696;80;99203;-91
2022/09/12 05:10:48;;;;;;;16.03;6.97;;;;;;;12.44;95.27;100560.88;3559601;81;99144;-92
2022/09/12 05:15:57;;;;;;;10.10;6.08;;;;;;;12.51;95.34;100559.56;3568472;81;99253;-91
2022/09/12 05:20:59;;;;;;;15.23;6.90;;;;;;;12.59;95.32;100572.81;3556056;80;99345;-90
2022/09/12 05:26:03;;;;;;;11.53;6.60;;;;;;;12.64;95.35;100569.08;3500308;82;99179;-92
2022/09/12 05:31:15;;;;;;;14.93;7.47;;;;;;;12.73;95.67;100565.96;3545086;81;99270;-90
2022/09/12 05:36:29;;;;;;;11.73;7.15;;;;;;;12.79;95.67;100576.25;3544735;81;99148;-89
2022/09/12 05:41:32;;;;;;;11.35;6.65;;;;;;;12.85;97.00;100578.05;3534049;81;99416;-89
2022/09/12 05:46:40;;;;;;;11.07;7.07;;;;;;;12.94;97.46;100579.86;3551262;81;99284;-90
2022/09/12 05:51:44;;;;;;;11.50;7.13;;;;;;;13.02;97.67;100580.91;3544885;81;99206;-90
2022/09/12 05:56:45;;;;;;;11.43;7.10;;;;;;;13.12;98.09;100596.74;3535701;82;99202;-90
2022/09/12 06:01:47;;;;;;;11.18;6.97;;;;;;;13.19;97.54;100595.38;3540853;81;99134;-90
2022/09/12 06:06:49;;;;;;;10.48;6.03;;;;;;;13.27;97.26;100597.58;3541479;81;99289;-89
2022/09/12 06:11:50;;;;;;;10.63;6.20;;;;;;;13.37;97.39;100596.23;3544312;81;99143;-90
2022/09/12 06:16:51;;;;;;;11.55;6.37;;;;;;;13.48;97.62;100599.81;3547052;81;99014;-89
2022/09/12 06:21:53;;;;;;;9.37;5.20;;;;;;;13.58;98.10;100599.02;3556784;80;99208;-89
2022/09/12 06:26:54;;;;;;;9.78;5.60;;;;;;;13.67;97.92;100600.02;3555957;81;98941;-89
2022/09/12 06:31:55;;;;;;;7.87;4.63;;;;;;;13.75;97.65;100603.80;3554169;81;98971;-89
2022/09/12 06:36:56;;;;;;;10.35;4.97;;;;;;;13.82;97.26;100603.00;3561475;81;98960;-90
2022/09/12 06:41:57;;;;;;;9.80;5.40;;;;;;;13.91;97.33;100604.19;3560475;81;99320;-90
2022/09/12 06:46:58;;;;;;;10.57;5.77;;;;;;;13.98;97.44;100607.55;3569525;81;98994;-90
2022/09/12 06:51:59;;;;;;;9.63;5.20;;;;;;;14.08;97.66;100604.80;3556270;81;99259;-90
2022/09/12 06:57:01;;;;;;;10.93;5.50;;;;;;;14.20;97.99;100600.27;3549926;80;99132;-89
2022/09/12 07:02:02;;;;;;;9.65;5.55;;;;;;;14.32;98.08;100602.63;3537547;81;99328;-90
2022/09/12 07:07:04;;;;;;;9.63;4.90;;;;;;;14.43;98.58;100602.59;3538660;81;99339;-90
2022/09/12 07:12:06;;;;;;;9.10;5.53;;;;;;;14.57;98.60;100599.81;3536362;81;99165;-89
2022/09/12 07:17:07;;;;;;;8.63;5.50;;;;;;;14.67;98.71;100610.85;3536124;81;98842;-89
2022/09/12 07:22:08;;;;;;;9.08;5.95;;;;;;;14.83;98.92;100609.05;3525882;81;98981;-90
2022/09/12 07:27:09;;;;;;;9.10;5.53;;;;;;;14.99;99.10;100613.55;3554869;81;99163;-90
2022/09/12 07:32:10;;;;;;;11.17;6.40;;;;;;;15.16;99.17;100618.98;3549835;81;98971;-89
2022/09/12 07:37:11;;;;;;;11.55;6.05;;;;;;;15.32;99.18;100622.09;3544856;81;99033;-90
2022/09/12 07:42:13;;;;;;;10.63;5.57;;;;;;;15.49;99.22;100628.16;3534336;81;99210;-88
2022/09/12 07:47:14;;;;;;;10.27;5.23;;;;;;;15.67;98.80;100628.86;3514578;81;99160;-89
2022/09/12 07:52:15;;;;;;;11.45;5.97;;;;;;;15.87;98.32;100634.67;3530421;81;98964;-90
2022/09/12 07:57:16;;;;;;;10.17;5.50;;;;;;;16.04;98.35;100628.20;3540287;81;98971;-91
2022/09/12 08:02:17;;;;;;;9.53;5.47;;;;;;;16.25;98.31;100627.41;3528048;81;99145;-90
2022/09/12 08:07:18;;;;;;;9.13;5.45;;;;;;;16.42;97.95;100636.83;3535082;81;98822;-89
2022/09/12 08:12:19;;;;;;;10.93;5.15;;;;;;;16.60;97.46;100641.60;3527374;82;98852;-90
2022/09/12 08:17:20;;;;;;;8.78;4.58;;;;;;;16.74;96.79;100650.58;3545394;81;99074;-89
2022/09/12 08:22:23;;;;;;;7.80;4.67;;;;;;;16.84;95.97;100649.69;3535902;81;98914;-91
2022/09/12 08:27:24;;;;;;;12.90;5.30;;;;;;;16.96;95.72;100638.02;3535522;82;98920;-91
2022/09/12 08:32:25;;;;;;;10.05;4.97;;;;;;;17.06;95.10;100639.89;3542393;81;98958;-90
2022/09/12 08:37:30;;;;;;;9.25;4.83;;;;;;;17.20;94.95;100643.91;3538451;82;98940;-90
2022/09/12 08:42:48;;;;;;;7.90;4.20;;;;;;;17.34;94.54;100645.73;3553285;81;99247;-91
2022/09/12 08:47:50;;;;;;;8.45;4.53;;;;;;;17.47;94.19;100638.42;3529045;81;99227;-90
2022/09/12 08:53:04;;;;;;;8.53;3.60;;;;;;;17.60;93.75;100635.27;3537946;81;99081;-90
2022/09/12 08:58:16;;;;;;;8.03;4.17;;;;;;;17.78;93.17;100630.22;3549783;80;98697;-90
2022/09/12 09:03:22;;;;;;;8.43;3.30;;;;;;;17.95;92.34;100630.55;3547541;81;98796;-90
2022/09/12 09:08:31;;;;;;;5.85;3.15;;;;;;;18.11;91.63;100633.48;3539107;81;98999;-90
2022/09/12 09:19:40;;;;;;;6.03;3.45;;;;;;;19.05;90.92;100629.58;3517935;82;98744;-88
2022/09/12 09:24:52;;;;;;;5.83;3.10;;;;;;;19.79;90.69;100630.20;3494348;82;98814;-91
2022/09/12 09:29:55;;;;;;;6.50;3.50;;;;;;;20.60;89.78;100626.20;3501809;82;98872;-88
2022/09/12 09:34:58;;;;;;;6.65;2.92;;;;;;;21.37;87.54;100614.99;3507471;82;98995;-88
2022/09/12 09:40:05;;;;;;;5.67;2.80;;;;;;;22.04;81.97;100617.13;3518910;81;99068;-88
2022/09/12 09:45:16;;;;;;;5.08;2.20;;;;;;;22.64;80.66;100608.28;3511266;81;98813;-87
2022/09/12 09:50:18;;;;;;;3.98;1.98;;;;;;;23.41;80.70;100606.04;3509793;82;98775;-87
2022/09/12 09:55:24;;;;;;;5.33;2.05;;;;;;;24.07;77.78;100618.06;3497034;82;99006;-89
2022/09/12 10:00:37;;;;;;;7.95;2.22;;;;;;;24.36;75.20;100620.64;3519130;81;98959;-89
2022/09/12 10:05:51;;;;;;;5.30;2.20;;;;;;;24.66;73.11;100625.41;3511103;82;98537;-88
2022/09/12 10:11:06;;;;;;;5.12;2.35;;;;;;;25.07;71.62;100617.72;3518531;82;98808;-89
2022/09/12 10:16:21;;;;;;;3.58;1.98;;;;;;;25.59;70.45;100614.52;3530110;81;98906;-88
2022/09/12 10:21:38;;;;;;;4.15;1.90;;;;;;;25.56;67.13;100618.92;3559987;80;99030;-88
2022/09/12 10:26:41;;;;;;;4.95;2.00;;;;;;;25.60;66.16;100622.36;3566798;80;98893;-88
2022/09/12 10:31:53;;;;;;;5.45;2.65;;;;;;;25.53;64.78;100619.24;3556297;80;98834;-88
2022/09/12 10:37:05;;;;;;;3.70;2.10;;;;;;;25.48;64.80;100593.11;3549066;81;98785;-87
2022/09/12 10:42:06;;;;;;;6.62;2.62;;;;;;;25.54;62.94;100608.12;3559831;80;99071;-87
2022/09/12 10:47:23;;;;;;;8.78;2.70;;;;;;;25.44;63.44;100596.71;3568487;80;99116;-87
2022/09/12 10:52:25;;;;;;;3.52;2.10;;;;;;;25.49;62.49;100597.48;3529497;80;99474;-88
2022/09/12 10:57:37;;;;;;;4.17;2.75;;;;;;;25.68;61.92;100593.97;3537364;81;98794;-87
2022/09/12 11:03:04;;;;;;;6.22;2.55;;;;;;;25.76;61.32;100586.72;3547076;81;99070;-85
2022/09/12 11:08:40;;;;;;;5.37;2.35;;;;;;;25.83;58.60;100577.94;3549645;80;98775;-87
2022/09/12 11:14:02;;;;;;;5.30;2.08;;;;;;;26.04;57.44;100582.56;3516304;80;98947;-91
2022/09/12 11:19:11;;;;;;;4.05;2.10;;;;;;;26.29;57.55;100574.41;3558673;80;99002;-88
2022/09/12 11:24:24;;;;;;;3.75;2.15;;;;;;;26.63;55.99;100568.83;3544015;80;98883;-88
2022/09/12 11:29:59;;;;;;;4.35;2.25;;;;;;;26.81;55.87;100581.39;3546285;80;98909;-86
2022/09/12 12:11:48;;;;;;;6.33;2.40;;;;;;;26.39;54.49;100580.14;3660078;78;99029;-86
2022/09/12 12:22:17;;;;;;;3.45;1.70;;;;;;;26.05;55.45;100577.83;3411499;83;98839;-89
2022/09/12 12:27:57;;;;;;;4.90;1.65;;;;;;;25.91;55.21;100580.58;3373132;84;98917;-92
2022/09/12 12:39:34;;;;;;;5.15;1.95;;;;;;;25.50;55.38;100580.72;3524178;79;98904;-85
2022/09/12 12:44:48;;;;;;;3.22;1.92;;;;;;;25.33;55.06;100572.48;3534355;81;98964;-85
2022/09/12 12:49:57;;;;;;;2.90;1.72;;;;;;;25.13;55.55;100567.95;3540893;81;98997;-88
2022/09/12 12:55:03;;;;;;;4.05;2.02;;;;;;;25.05;56.53;100562.50;3570982;80;99204;-85
2022/09/12 13:00:21;;;;;;;5.33;2.00;;;;;;;24.98;54.82;100562.05;3594289;79;99405;-86
2022/09/12 13:05:26;;;;;;;4.72;2.40;;;;;;;24.76;56.12;100558.02;3555992;79;99086;-85
2022/09/12 13:10:31;;;;;;;3.53;1.57;;;;;;;24.60;56.54;100560.36;3593512;79;98882;-86
2022/09/12 13:15:40;;;;;;;7.30;2.10;;;;;;;24.38;56.40;100560.48;3606937;79;99061;-85
2022/09/12 13:21:18;;;;;;;3.20;1.83;;;;;;;24.18;56.74;100560.14;3594946;79;105280;-86
2022/09/12 13:26:26;;;;;;;3.52;1.87;;;;;;;23.97;56.85;100557.45;3614983;79;98986;-84
2022/09/12 13:31:29;;;;;;;4.58;1.77;;;;;;;23.72;57.47;100547.80;3547211;80;98655;-84
2022/09/12 13:37:11;;;;;;;4.05;1.90;;;;;;;23.53;58.08;100553.19;3544218;80;99206;-84
2022/09/12 13:42:30;;;;;;;4.08;1.75;;;;;;;23.35;58.35;100547.49;3649496;79;98842;-84
2022/09/12 13:47:42;;;;;;;5.67;2.20;;;;;;;23.14;58.70;100546.27;3640441;79;99048;-84
2022/09/12 13:52:53;;;;;;;5.85;1.95;;;;;;;22.96;58.98;100548.17;3646608;79;98895;-86
2022/09/12 13:58:04;;;;;;;5.10;2.37;;;;;;;22.83;59.59;100549.64;3626873;79;98665;-84
2022/09/12 14:08:52;;;;;;;3.85;2.20;;;;;;;22.41;60.28;100529.34;3619595;78;98790;-84
2022/09/12 14:13:54;;;;;;;5.85;2.75;;;;;;;22.12;60.20;100530.17;3666190;78;98612;-84
2022/09/12 14:18:57;;;;;;;4.12;2.20;;;;;;;22.12;60.20;100530.17;3673626;78;98546;-85
2022/09/12 14:24:00;;;;;;;4.92;1.98;;;;;;;21.98;61.19;100524.44;3662115;78;98849;-84
2022/09/12 14:29:06;;;;;;;5.33;2.47;;;;;;;21.84;60.76;100525.50;3663763;79;98619;-84
2022/09/12 14:34:18;;;;;;;3.17;1.85;;;;;;;21.74;61.15;100513.42;3657198;78;98600;-85
2022/09/12 14:39:39;;;;;;;6.92;2.42;;;;;;;21.65;61.29;100515.31;3648156;78;99377;-85
2022/09/12 14:44:45;;;;;;;3.95;2.15;;;;;;;21.45;60.93;100504.35;3608705;78;98653;-84
2022/09/12 14:49:50;;;;;;;5.90;2.15;;;;;;;21.20;61.10;100509.94;3612027;79;98672;-84
2022/09/12 14:55:05;;;;;;;4.42;2.30;;;;;;;21.04;60.70;100507.86;3614961;79;98915;-84
2022/09/12 15:00:21;;;;;;;6.12;2.55;;;;;;;20.93;61.48;100516.56;3614129;79;98948;-84
2022/09/12 15:05:26;;;;;;;4.10;2.33;;;;;;;20.78;61.66;100509.80;3607504;79;98876;-84
2022/09/12 15:10:35;;;;;;;7.60;2.62;;;;;;;20.61;61.88;100512.47;3582544;80;98613;-84
2022/09/12 15:15:38;;;;;;;4.60;2.10;;;;;;;20.46;62.52;100516.11;3547977;81;98893;-83
2022/09/12 15:20:42;;;;;;;4.53;2.37;;;;;;;20.37;62.66;100514.56;3538688;80;99221;-85
2022/09/12 15:25:43;;;;;;;7.95;2.75;;;;;;;20.24;62.34;100517.92;3581143;80;99064;-85
2022/09/12 15:30:46;;;;;;;5.37;2.90;;;;;;;20.13;63.28;100518.22;3596378;80;98776;-84
2022/09/12 15:35:51;;;;;;;15.55;6.50;;;;;;;20.00;63.96;100522.13;3554323;80;98580;-85
2022/09/12 15:40:52;;;;;;;5.10;2.90;;;;;;;19.77;65.24;100520.91;3505866;81;108240;-85
2022/09/12 15:45:53;;;;;;;5.75;2.70;;;;;;;19.60;66.04;100520.12;3502208;81;99109;-84
2022/09/12 15:51:00;;;;;;;4.85;2.70;;;;;;;19.52;66.51;100520.73;3471839;81;98923;-84
2022/09/12 15:56:05;;;;;;;7.85;3.10;;;;;;;19.45;66.94;100527.27;3482546;82;99127;-83
2022/09/12 16:01:05;;;;;;;7.10;3.52;;;;;;;19.35;67.33;100531.71;3476827;81;99414;-82
2022/09/12 16:06:08;;;;;;;5.75;2.58;;;;;;;19.22;67.87;100531.59;3480545;82;99087;-84
2022/09/12 16:11:24;;;;;;;7.60;3.58;;;;;;;19.07;68.07;100522.55;3481602;83;99144;-84
2022/09/12 16:16:25;;;;;;;6.03;3.45;;;;;;;18.91;68.47;100523.90;3473831;83;99031;-83
2022/09/12 16:21:27;;;;;;;7.77;3.60;;;;;;;18.74;69.26;100520.25;3490530;82;98854;-83
2022/09/12 16:26:28;;;;;;;7.15;3.55;;;;;;;18.61;70.02;100515.16;3484490;82;98963;-83
2022/09/12 16:31:29;;;;;;;9.30;3.67;;;;;;;18.46;70.74;100510.27;3479655;83;99238;-84
2022/09/12 16:36:31;;;;;;;4.63;2.67;;;;;;;18.32;71.11;100514.11;3490152;82;98851;-82
2022/09/12 16:41:32;;;;;;;5.67;3.00;;;;;;;18.17;71.80;100512.80;3553900;81;98794;-83
2022/09/12 16:46:33;;;;;;;5.87;3.10;;;;;;;18.05;72.25;100510.61;3587007;79;99171;-83
2022/09/12 16:51:37;;;;;;;7.33;3.37;;;;;;;17.93;72.57;100513.24;3592152;80;98824;-84
2022/09/12 16:56:38;;;;;;;5.93;3.47;;;;;;;17.86;73.33;100511.95;3592299;79;99061;-84
2022/09/12 17:01:39;;;;;;;8.47;4.40;;;;;;;17.78;73.54;100509.13;3590038;79;98913;-84
2022/09/12 17:06:40;;;;;;;8.37;4.20;;;;;;;17.70;74.57;100499.30;3584420;79;100036;-84
2022/09/12 17:11:42;;;;;;;8.17;4.80;;;;;;;17.65;74.80;100494.23;3533435;80;98882;-84
2022/09/12 17:16:45;;;;;;;8.78;4.10;;;;;;;17.58;75.07;100495.13;3606397;78;98978;-84
2022/09/12 17:21:51;;;;;;;9.30;4.93;;;;;;;17.54;75.62;100496.41;3593393;80;104416;-84
2022/09/12 17:26:51;;;;;;;8.40;4.72;;;;;;;17.48;75.93;100509.20;3586079;80;99105;-84
2022/09/12 17:31:53;;;;;;;9.18;5.25;;;;;;;17.41;76.33;100500.97;3592275;80;98814;-84
2022/09/12 17:36:54;;;;;;;9.88;5.40;;;;;;;17.33;76.76;100505.83;3593021;79;98909;-84
2022/09/12 17:41:56;;;;;;;9.40;4.67;;;;;;;17.25;77.06;100505.76;3613525;79;99078;-84
2022/09/12 17:46:57;;;;;;;11.53;5.55;;;;;;;17.16;77.11;100508.27;3619365;79;99122;-84
2022/09/12 17:51:58;;;;;;;10.72;5.87;;;;;;;17.05;77.76;100505.47;3616365;79;99088;-84
2022/09/12 17:56:59;;;;;;;10.03;4.70;;;;;;;16.98;78.21;100507.73;3616685;79;98810;-84
2022/09/12 18:02:12;;;;;;;9.90;5.65;;;;;;;16.87;78.48;100504.90;3617498;79;98734;-84
2022/09/12 18:07:19;;;;;;;13.85;5.53;;;;;;;16.77;78.98;100509.40;3620362;79;98773;-84
2022/09/12 18:12:21;;;;;;;10.30;5.67;;;;;;;16.65;79.39;100507.17;3613581;79;99043;-84
2022/09/12 18:17:22;;;;;;;9.80;5.00;;;;;;;16.52;79.77;100499.80;3620165;79;98948;-84
2022/09/12 18:22:23;;;;;;;8.23;4.58;;;;;;;16.42;79.64;100509.84;3622634;79;98950;-84
2022/09/12 18:27:24;;;;;;;9.23;4.90;;;;;;;16.33;80.30;100504.53;3621113;78;98857;-84
2022/09/12 18:32:25;;;;;;;12.43;5.97;;;;;;;16.26;80.80;100514.34;3605317;78;99253;-84
2022/09/12 18:37:26;;;;;;;14.03;7.43;;;;;;;16.15;81.08;100515.05;3622330;79;98910;-83
2022/09/12 18:42:27;;;;;;;11.28;6.20;;;;;;;16.04;81.37;100506.84;3640672;79;98871;-84
2022/09/12 18:47:29;;;;;;;11.07;6.10;;;;;;;15.95;81.69;100516.23;3589825;79;99112;-85
2022/09/12 18:52:30;;;;;;;14.67;7.33;;;;;;;15.86;81.76;100517.30;3577713;80;98830;-84
2022/09/12 18:57:33;;;;;;;13.53;7.55;;;;;;;15.75;82.39;100504.12;3631011;79;98903;-84
2022/09/12 19:02:35;;;;;;;15.20;7.20;;;;;;;15.67;82.85;100507.36;3595044;79;99107;-84
2022/09/12 19:07:37;;;;;;;13.63;7.53;;;;;;;15.60;83.02;100509.59;3584646;80;99266;-84
2022/09/12 19:12:38;;;;;;;13.90;8.28;;;;;;;15.49;83.28;100506.11;3582639;80;115190;-85
2022/09/12 19:17:39;;;;;;;14.17;8.70;;;;;;;15.42;83.71;100502.63;3601561;80;99268;-86
2022/09/12 19:22:45;;;;;;;13.70;8.20;;;;;;;15.36;84.08;100500.09;3602958;79;98932;-86
2022/09/12 19:27:45;;;;;;;15.87;10.00;;;;;;;15.30;84.25;100496.92;3597756;78;99251;-86
2022/09/12 19:32:46;;;;;;;18.37;12.23;;;;;;;15.24;84.50;100500.52;3608174;79;99361;-86
2022/09/12 19:37:46;;;;;;;19.20;10.80;;;;;;;15.13;84.75;100486.74;3603378;79;100450;-86
2022/09/12 19:42:47;;;;;;;16.47;11.00;;;;;;;15.07;85.08;100489.75;3558110;80;99895;-86
2022/09/12 19:47:48;;;;;;;19.47;10.77;;;;;;;15.00;85.04;100485.62;3569978;80;108475;-85
2022/09/12 19:52:49;;;;;;;19.80;11.90;;;;;;;14.92;85.37;100484.68;3601126;80;99629;-87
2022/09/12 19:57:52;;;;;;;17.23;11.10;;;;;;;14.86;85.70;100484.33;3579711;80;99095;-86
2022/09/12 20:02:54;;;;;;;17.75;11.83;;;;;;;14.80;85.88;100472.09;3608642;79;99053;-87
2022/09/12 20:07:56;;;;;;;16.93;10.30;;;;;;;14.74;86.09;100478.45;3592092;79;99172;-86
2022/09/12 20:12:57;;;;;;;13.90;8.98;;;;;;;14.67;86.29;100474.34;3649994;78;99422;-86
2022/09/12 20:17:58;;;;;;;13.43;8.65;;;;;;;14.60;86.39;100473.00;3656364;78;98940;-86
2022/09/12 20:22:59;;;;;;;15.27;9.47;;;;;;;14.55;86.65;100471.41;3653664;79;98842;-86
2022/09/12 20:28:01;;;;;;;14.93;8.98;;;;;;;14.47;86.77;100465.73;3646896;77;99145;-85
2022/09/12 20:33:02;;;;;;;16.47;10.33;;;;;;;14.42;86.75;100463.38;3645117;79;99095;-86
2022/09/12 20:38:02;;;;;;;16.27;11.05;;;;;;;14.30;87.14;100451.94;3652232;78;99245;-86
2022/09/12 20:43:03;;;;;;;16.02;10.15;;;;;;;14.32;87.41;100460.63;3627909;78;99369;-86
2022/09/12 20:48:04;;;;;;;14.55;10.25;;;;;;;14.26;87.45;100456.11;3589300;79;99591;-86
2022/09/12 20:53:06;;;;;;;14.13;9.20;;;;;;;14.21;87.65;100454.33;3598885;79;99435;-85
2022/09/12 20:58:10;;;;;;;17.40;10.38;;;;;;;14.16;87.81;100458.86;3601980;79;99012;-85
2022/09/12 21:03:12;;;;;;;16.10;10.40;;;;;;;14.11;87.87;100452.38;3595051;80;99287;-85
2022/09/12 21:08:14;;;;;;;14.78;9.73;;;;;;;14.07;88.09;100444.67;3595156;79;99416;-84
2022/09/12 21:13:15;;;;;;;16.48;9.68;;;;;;;14.03;87.93;100444.69;3598788;78;99120;-85
2022/09/12 21:18:16;;;;;;;19.03;10.40;;;;;;;13.96;88.28;100445.30;3573878;78;99198;-85
2022/09/12 21:23:17;;;;;;;15.47;9.47;;;;;;;13.90;88.39;100437.98;3580505;79;99394;-85
2022/09/12 21:28:18;;;;;;;16.20;10.43;;;;;;;13.87;88.64;100438.80;3591314;80;99024;-86
2022/09/12 21:33:20;;;;;;;15.43;9.88;;;;;;;13.80;88.63;100434.64;3594376;79;99473;-86
2022/09/12 21:38:21;;;;;;;15.50;9.60;;;;;;;13.79;88.85;100434.45;3603872;78;98994;-86
2022/09/12 21:43:22;;;;;;;12.60;7.90;;;;;;;13.72;88.68;100425.38;3610533;79;99494;-85
2022/09/12 21:48:23;;;;;;;13.90;8.38;;;;;;;13.67;88.93;100427.96;3618580;79;99267;-85
2022/09/12 21:53:25;;;;;;;12.73;8.33;;;;;;;13.65;88.92;100430.92;3531549;81;99098;-86
2022/09/12 21:58:28;;;;;;;14.23;9.13;;;;;;;13.59;88.97;100429.75;3605492;80;99135;-86
2022/09/12 22:03:29;;;;;;;11.48;7.45;;;;;;;13.53;89.18;100432.11;3592246;80;99129;-86
2022/09/12 22:08:32;;;;;;;13.80;8.40;;;;;;;13.49;89.25;100431.92;3571953;80;98986;-86
2022/09/12 22:13:38;;;;;;;13.48;7.92;;;;;;;13.43;89.11;100435.70;3608055;80;99287;-86
2022/09/12 22:18:39;;;;;;;17.67;10.27;;;;;;;13.38;89.20;100437.47;3615464;79;98986;-86
2022/09/12 22:29:00;;;;;;;13.38;8.43;;;;;;;13.28;89.58;100424.44;3614764;79;99247;-85
2022/09/12 22:34:02;;;;;;;13.45;9.38;;;;;;;13.25;89.83;100418.91;3612646;79;99059;-85
2022/09/12 22:39:03;;;;;;;15.20;8.85;;;;;;;13.19;89.79;100417.13;3608618;80;99077;-86
2022/09/12 22:44:05;;;;;;;13.57;8.53;;;;;;;13.13;89.82;100407.65;3602893;80;99119;-85
2022/09/12 22:49:06;;;;;;;13.77;9.03;;;;;;;13.10;89.90;100397.98;3607065;80;99089;-85
2022/09/12 22:54:09;;;;;;;15.53;8.50;;;;;;;13.05;90.19;100389.50;3578263;81;99142;-85
2022/09/12 22:59:10;;;;;;;14.95;8.70;;;;;;;13.01;89.97;100398.38;3614761;79;99135;-86
2022/09/12 23:04:12;;;;;;;14.43;8.17;;;;;;;12.96;90.20;100387.71;3616805;79;98983;-85
2022/09/12 23:09:13;;;;;;;13.20;8.47;;;;;;;12.90;90.12;100382.35;3616019;79;99186;-85
2022/09/12 23:14:14;;;;;;;13.15;8.88;;;;;;;12.88;90.32;100377.82;3617790;79;99357;-86
2022/09/12 23:19:15;;;;;;;14.45;8.15;;;;;;;12.84;90.49;100380.36;3620991;79;99020;-86
2022/09/12 23:24:16;;;;;;;13.50;8.63;;;;;;;12.80;90.37;100379.59;3616311;79;99114;-86
2022/09/12 23:29:17;;;;;;;14.50;8.87;;;;;;;12.76;90.32;100363.59;3617783;79;99273;-86
2022/09/12 23:34:18;;;;;;;11.88;7.45;;;;;;;12.73;90.61;100363.79;3540220;81;99204;-86
2022/09/12 23:39:19;;;;;;;13.17;8.27;;;;;;;12.70;90.53;100356.89;3608711;80;99066;-85
2022/09/12 23:44:20;;;;;;;12.43;7.50;;;;;;;12.65;90.75;100355.28;3598276;79;99016;-86
2022/09/12 23:49:21;;;;;;;14.18;8.33;;;;;;;12.63;90.70;100357.66;3599067;79;99185;-86
2022/09/12 23:54:24;;;;;;;15.02;8.66;;;;;;;12.59;90.73;100345.04;3600573;79;99111;-86
2022/09/12 23:59:25;;;;;;;15.08;8.90;;;;;;;12.55;90.82;100348.38;3577403;81;99159;-86
